Terminal Aerodrome Forecast
Issued by NWS

Home | Current Version | Previous Version | Text Only | Print | Product List | Glossary On
Versions: 1 2 3 4 5 6 7 8 9 10 11 12 13 14
000
FTUS45 KPSR 242337
TAFIWA
TAF
KIWA 242337Z 2500/2524 27009G16KT P6SM FEW120 SCT250
     FM250300 29004KT P6SM SCT250
     FM250600 13009KT P6SM SCT250
     FM252100 27010G18KT P6SM FEW120 SCT250
      AMD LTD TO CLD VIS AND WIND 2503/2513=

USA.gov is the U.S. government's official web portal to all federal, state and local government web resources and services.